sensor_id;sensor_type;location;lat;lon;timestamp;P1;durP1;ratioP1;P2;durP2;ratioP2
45926;SDS011;31639;47.614;19.684;2022-09-06T00:01:57;1.90;;;1.30;;
45926;SDS011;31639;47.614;19.684;2022-09-06T00:06:58;1.83;;;1.37;;
45926;SDS011;31639;47.614;19.684;2022-09-06T00:11:58;2.20;;;1.60;;
45926;SDS011;31639;47.614;19.684;2022-09-06T00:16:59;3.17;;;1.70;;
45926;SDS011;31639;47.614;19.684;2022-09-06T00:21:59;1.88;;;1.27;;
45926;SDS011;31639;47.614;19.684;2022-09-06T00:27:00;1.27;;;1.07;;
45926;SDS011;31639;47.614;19.684;2022-09-06T00:32:01;2.70;;;1.50;;
45926;SDS011;31639;47.614;19.684;2022-09-06T00:37:02;1.52;;;1.10;;
45926;SDS011;31639;47.614;19.684;2022-09-06T00:42:06;1.92;;;1.38;;
45926;SDS011;31639;47.614;19.684;2022-09-06T00:47:10;2.38;;;1.20;;
45926;SDS011;31639;47.614;19.684;2022-09-06T00:52:12;1.80;;;1.15;;
45926;SDS011;31639;47.614;19.684;2022-09-06T00:57:14;1.83;;;1.40;;
45926;SDS011;31639;47.614;19.684;2022-09-06T01:02:16;2.05;;;1.30;;
45926;SDS011;31639;47.614;19.684;2022-09-06T01:12:49;1.88;;;1.05;;
45926;SDS011;31639;47.614;19.684;2022-09-06T01:23:31;2.00;;;1.13;;
45926;SDS011;31639;47.614;19.684;2022-09-06T01:28:50;2.38;;;1.33;;
45926;SDS011;31639;47.614;19.684;2022-09-06T01:34:08;2.30;;;1.13;;
45926;SDS011;31639;47.614;19.684;2022-09-06T01:39:16;1.43;;;1.20;;
45926;SDS011;31639;47.614;19.684;2022-09-06T01:44:24;3.00;;;1.20;;
45926;SDS011;31639;47.614;19.684;2022-09-06T02:00:14;1.50;;;1.13;;
45926;SDS011;31639;47.614;19.684;2022-09-06T02:05:22;2.65;;;1.73;;
45926;SDS011;31639;47.614;19.684;2022-09-06T02:10:29;1.98;;;1.50;;
45926;SDS011;31639;47.614;19.684;2022-09-06T02:15:42;2.17;;;1.30;;
45926;SDS011;31639;47.614;19.684;2022-09-06T02:20:52;1.83;;;1.05;;
45926;SDS011;31639;47.614;19.684;2022-09-06T02:26:01;1.55;;;1.00;;
45926;SDS011;31639;47.614;19.684;2022-09-06T02:31:20;1.10;;;1.00;;
45926;SDS011;31639;47.614;19.684;2022-09-06T02:36:34;2.28;;;1.30;;
45926;SDS011;31639;47.614;19.684;2022-09-06T02:41:35;1.20;;;1.10;;
45926;SDS011;31639;47.614;19.684;2022-09-06T02:46:37;3.08;;;2.03;;
45926;SDS011;31639;47.614;19.684;2022-09-06T02:51:37;1.75;;;1.27;;
45926;SDS011;31639;47.614;19.684;2022-09-06T02:56:39;1.90;;;1.50;;
45926;SDS011;31639;47.614;19.684;2022-09-06T03:01:40;2.67;;;1.48;;
45926;SDS011;31639;47.614;19.684;2022-09-06T03:06:40;2.47;;;1.38;;
45926;SDS011;31639;47.614;19.684;2022-09-06T03:11:41;2.40;;;1.53;;
45926;SDS011;31639;47.614;19.684;2022-09-06T03:16:41;2.70;;;2.15;;
45926;SDS011;31639;47.614;19.684;2022-09-06T03:21:42;5.07;;;1.65;;
45926;SDS011;31639;47.614;19.684;2022-09-06T03:26:42;2.75;;;1.80;;
45926;SDS011;31639;47.614;19.684;2022-09-06T03:31:43;2.70;;;1.90;;
45926;SDS011;31639;47.614;19.684;2022-09-06T03:36:43;3.40;;;1.40;;
45926;SDS011;31639;47.614;19.684;2022-09-06T03:41:44;2.13;;;1.67;;
45926;SDS011;31639;47.614;19.684;2022-09-06T03:46:44;4.77;;;2.03;;
45926;SDS011;31639;47.614;19.684;2022-09-06T03:51:45;1.65;;;1.30;;
45926;SDS011;31639;47.614;19.684;2022-09-06T03:56:45;1.70;;;1.30;;
45926;SDS011;31639;47.614;19.684;2022-09-06T04:01:46;2.60;;;1.63;;
45926;SDS011;31639;47.614;19.684;2022-09-06T04:06:46;2.50;;;1.65;;
45926;SDS011;31639;47.614;19.684;2022-09-06T04:11:47;2.03;;;1.20;;
45926;SDS011;31639;47.614;19.684;2022-09-06T04:16:47;3.83;;;1.40;;
45926;SDS011;31639;47.614;19.684;2022-09-06T04:21:48;2.50;;;1.73;;
45926;SDS011;31639;47.614;19.684;2022-09-06T04:26:49;5.90;;;1.40;;
45926;SDS011;31639;47.614;19.684;2022-09-06T04:31:49;3.22;;;1.67;;
45926;SDS011;31639;47.614;19.684;2022-09-06T04:36:49;2.57;;;1.80;;
45926;SDS011;31639;47.614;19.684;2022-09-06T04:41:53;3.97;;;1.90;;
45926;SDS011;31639;47.614;19.684;2022-09-06T04:47:05;2.20;;;1.90;;
45926;SDS011;31639;47.614;19.684;2022-09-06T04:52:14;4.47;;;1.60;;
45926;SDS011;31639;47.614;19.684;2022-09-06T04:57:34;4.40;;;1.90;;
45926;SDS011;31639;47.614;19.684;2022-09-06T05:02:51;2.97;;;2.20;;
45926;SDS011;31639;47.614;19.684;2022-09-06T05:07:55;3.10;;;1.58;;
45926;SDS011;31639;47.614;19.684;2022-09-06T05:13:00;1.95;;;1.52;;
45926;SDS011;31639;47.614;19.684;2022-09-06T05:18:07;3.50;;;1.83;;
45926;SDS011;31639;47.614;19.684;2022-09-06T05:23:20;3.15;;;1.55;;
45926;SDS011;31639;47.614;19.684;2022-09-06T05:28:34;3.67;;;1.38;;
45926;SDS011;31639;47.614;19.684;2022-09-06T05:33:43;1.83;;;1.58;;
45926;SDS011;31639;47.614;19.684;2022-09-06T05:39:06;2.35;;;1.65;;
45926;SDS011;31639;47.614;19.684;2022-09-06T05:44:09;3.42;;;1.40;;
45926;SDS011;31639;47.614;19.684;2022-09-06T05:49:10;3.28;;;2.28;;
45926;SDS011;31639;47.614;19.684;2022-09-06T05:54:12;5.60;;;2.17;;
45926;SDS011;31639;47.614;19.684;2022-09-06T05:59:12;4.20;;;2.37;;
45926;SDS011;31639;47.614;19.684;2022-09-06T06:04:13;3.53;;;1.98;;
45926;SDS011;31639;47.614;19.684;2022-09-06T06:09:13;1.80;;;1.27;;
45926;SDS011;31639;47.614;19.684;2022-09-06T06:14:14;3.53;;;2.15;;
45926;SDS011;31639;47.614;19.684;2022-09-06T06:19:15;2.70;;;1.65;;
45926;SDS011;31639;47.614;19.684;2022-09-06T06:24:15;2.20;;;2.00;;
45926;SDS011;31639;47.614;19.684;2022-09-06T06:29:15;3.53;;;1.60;;
45926;SDS011;31639;47.614;19.684;2022-09-06T06:34:16;2.40;;;1.80;;
45926;SDS011;31639;47.614;19.684;2022-09-06T06:39:20;3.33;;;2.08;;
45926;SDS011;31639;47.614;19.684;2022-09-06T06:44:21;2.10;;;1.65;;
45926;SDS011;31639;47.614;19.684;2022-09-06T06:49:21;3.33;;;2.10;;
45926;SDS011;31639;47.614;19.684;2022-09-06T06:54:21;2.87;;;1.90;;
45926;SDS011;31639;47.614;19.684;2022-09-06T06:59:22;2.53;;;1.42;;
45926;SDS011;31639;47.614;19.684;2022-09-06T07:04:22;2.10;;;1.52;;
45926;SDS011;31639;47.614;19.684;2022-09-06T07:09:23;2.22;;;1.70;;
45926;SDS011;31639;47.614;19.684;2022-09-06T07:14:23;3.67;;;1.77;;
45926;SDS011;31639;47.614;19.684;2022-09-06T07:19:24;2.27;;;1.40;;
45926;SDS011;31639;47.614;19.684;2022-09-06T07:24:24;2.50;;;1.67;;
45926;SDS011;31639;47.614;19.684;2022-09-06T07:29:25;2.83;;;1.80;;
45926;SDS011;31639;47.614;19.684;2022-09-06T07:34:25;4.70;;;1.67;;
45926;SDS011;31639;47.614;19.684;2022-09-06T07:39:26;3.42;;;2.08;;
45926;SDS011;31639;47.614;19.684;2022-09-06T07:44:26;2.78;;;1.98;;
45926;SDS011;31639;47.614;19.684;2022-09-06T07:49:28;2.30;;;1.70;;
45926;SDS011;31639;47.614;19.684;2022-09-06T07:54:28;3.60;;;2.13;;
45926;SDS011;31639;47.614;19.684;2022-09-06T07:59:29;2.90;;;1.67;;
45926;SDS011;31639;47.614;19.684;2022-09-06T08:04:29;1.70;;;1.23;;
45926;SDS011;31639;47.614;19.684;2022-09-06T08:09:30;3.42;;;1.85;;
45926;SDS011;31639;47.614;19.684;2022-09-06T08:14:31;2.42;;;1.67;;
45926;SDS011;31639;47.614;19.684;2022-09-06T08:19:32;2.90;;;1.58;;
45926;SDS011;31639;47.614;19.684;2022-09-06T08:24:33;3.13;;;1.52;;
45926;SDS011;31639;47.614;19.684;2022-09-06T08:29:34;3.83;;;1.70;;
45926;SDS011;31639;47.614;19.684;2022-09-06T08:34:35;3.23;;;1.87;;
45926;SDS011;31639;47.614;19.684;2022-09-06T08:39:35;2.30;;;1.53;;
45926;SDS011;31639;47.614;19.684;2022-09-06T08:44:36;3.30;;;2.00;;
45926;SDS011;31639;47.614;19.684;2022-09-06T08:49:47;1.52;;;1.42;;
45926;SDS011;31639;47.614;19.684;2022-09-06T09:00:20;2.63;;;1.48;;
45926;SDS011;31639;47.614;19.684;2022-09-06T09:05:25;2.20;;;1.85;;
45926;SDS011;31639;47.614;19.684;2022-09-06T09:10:30;3.75;;;1.95;;
45926;SDS011;31639;47.614;19.684;2022-09-06T09:15:38;2.50;;;1.20;;
45926;SDS011;31639;47.614;19.684;2022-09-06T09:20:39;2.83;;;1.98;;
45926;SDS011;31639;47.614;19.684;2022-09-06T09:25:39;2.72;;;1.35;;
45926;SDS011;31639;47.614;19.684;2022-09-06T09:30:44;1.70;;;1.23;;
45926;SDS011;31639;47.614;19.684;2022-09-06T09:35:47;2.70;;;1.60;;
45926;SDS011;31639;47.614;19.684;2022-09-06T09:40:55;2.05;;;1.83;;
45926;SDS011;31639;47.614;19.684;2022-09-06T09:51:22;2.20;;;1.38;;
45926;SDS011;31639;47.614;19.684;2022-09-06T09:56:28;1.58;;;1.35;;
45926;SDS011;31639;47.614;19.684;2022-09-06T10:01:30;1.75;;;1.23;;
45926;SDS011;31639;47.614;19.684;2022-09-06T10:06:34;2.25;;;1.50;;
45926;SDS011;31639;47.614;19.684;2022-09-06T10:11:37;1.42;;;1.33;;
45926;SDS011;31639;47.614;19.684;2022-09-06T10:16:52;1.90;;;1.40;;
45926;SDS011;31639;47.614;19.684;2022-09-06T10:21:53;3.38;;;1.40;;
45926;SDS011;31639;47.614;19.684;2022-09-06T10:27:02;1.48;;;1.08;;
45926;SDS011;31639;47.614;19.684;2022-09-06T10:42:53;1.98;;;1.35;;
45926;SDS011;31639;47.614;19.684;2022-09-06T10:48:03;1.90;;;1.27;;
45926;SDS011;31639;47.614;19.684;2022-09-06T10:58:22;3.75;;;1.60;;
45926;SDS011;31639;47.614;19.684;2022-09-06T11:03:31;1.52;;;1.20;;
45926;SDS011;31639;47.614;19.684;2022-09-06T11:13:49;1.50;;;1.00;;
45926;SDS011;31639;47.614;19.684;2022-09-06T11:24:12;1.65;;;1.50;;
45926;SDS011;31639;47.614;19.684;2022-09-06T11:29:18;1.30;;;1.00;;
45926;SDS011;31639;47.614;19.684;2022-09-06T11:34:25;2.78;;;1.60;;
45926;SDS011;31639;47.614;19.684;2022-09-06T11:39:37;1.75;;;1.35;;
45926;SDS011;31639;47.614;19.684;2022-09-06T11:49:56;1.67;;;1.23;;
45926;SDS011;31639;47.614;19.684;2022-09-06T11:54:56;2.33;;;1.43;;
45926;SDS011;31639;47.614;19.684;2022-09-06T11:59:58;1.33;;;1.20;;
45926;SDS011;31639;47.614;19.684;2022-09-06T12:15:29;1.20;;;1.10;;
45926;SDS011;31639;47.614;19.684;2022-09-06T12:25:53;3.07;;;1.00;;
45926;SDS011;31639;47.614;19.684;2022-09-06T12:30:54;1.92;;;1.00;;
45926;SDS011;31639;47.614;19.684;2022-09-06T12:41:24;2.03;;;1.20;;
45926;SDS011;31639;47.614;19.684;2022-09-06T12:46:26;1.65;;;1.30;;
45926;SDS011;31639;47.614;19.684;2022-09-06T12:51:29;2.85;;;1.42;;
45926;SDS011;31639;47.614;19.684;2022-09-06T12:56:31;3.08;;;1.00;;
45926;SDS011;31639;47.614;19.684;2022-09-06T13:01:36;1.52;;;1.20;;
45926;SDS011;31639;47.614;19.684;2022-09-06T13:06:38;1.25;;;1.15;;
45926;SDS011;31639;47.614;19.684;2022-09-06T13:11:43;1.48;;;1.30;;
45926;SDS011;31639;47.614;19.684;2022-09-06T13:16:48;1.48;;;1.38;;
45926;SDS011;31639;47.614;19.684;2022-09-06T13:21:50;3.80;;;1.30;;
45926;SDS011;31639;47.614;19.684;2022-09-06T13:26:51;1.23;;;1.10;;
45926;SDS011;31639;47.614;19.684;2022-09-06T13:31:52;1.50;;;1.17;;
45926;SDS011;31639;47.614;19.684;2022-09-06T13:42:02;1.23;;;0.93;;
45926;SDS011;31639;47.614;19.684;2022-09-06T13:47:06;1.05;;;0.95;;
45926;SDS011;31639;47.614;19.684;2022-09-06T13:52:06;1.55;;;1.10;;
45926;SDS011;31639;47.614;19.684;2022-09-06T13:57:07;1.52;;;1.30;;
45926;SDS011;31639;47.614;19.684;2022-09-06T14:02:10;1.50;;;0.90;;
45926;SDS011;31639;47.614;19.684;2022-09-06T14:07:14;1.45;;;1.02;;
45926;SDS011;31639;47.614;19.684;2022-09-06T14:12:15;1.07;;;0.97;;
45926;SDS011;31639;47.614;19.684;2022-09-06T14:17:15;1.55;;;1.45;;
45926;SDS011;31639;47.614;19.684;2022-09-06T14:22:16;1.65;;;1.05;;
45926;SDS011;31639;47.614;19.684;2022-09-06T14:27:16;1.50;;;1.40;;
45926;SDS011;31639;47.614;19.684;2022-09-06T14:32:17;1.15;;;1.05;;
45926;SDS011;31639;47.614;19.684;2022-09-06T14:37:18;3.83;;;1.30;;
45926;SDS011;31639;47.614;19.684;2022-09-06T14:42:20;1.50;;;1.30;;
45926;SDS011;31639;47.614;19.684;2022-09-06T14:47:23;1.17;;;0.98;;
45926;SDS011;31639;47.614;19.684;2022-09-06T14:52:24;2.30;;;1.17;;
45926;SDS011;31639;47.614;19.684;2022-09-06T14:57:24;2.53;;;1.83;;
45926;SDS011;31639;47.614;19.684;2022-09-06T15:02:25;1.20;;;0.95;;
45926;SDS011;31639;47.614;19.684;2022-09-06T15:07:27;1.57;;;1.30;;
45926;SDS011;31639;47.614;19.684;2022-09-06T15:12:28;1.55;;;1.45;;
45926;SDS011;31639;47.614;19.684;2022-09-06T15:17:28;3.85;;;2.10;;
45926;SDS011;31639;47.614;19.684;2022-09-06T15:22:29;1.80;;;1.33;;
45926;SDS011;31639;47.614;19.684;2022-09-06T15:27:30;1.50;;;1.35;;
45926;SDS011;31639;47.614;19.684;2022-09-06T15:32:30;1.60;;;1.20;;
45926;SDS011;31639;47.614;19.684;2022-09-06T15:37:30;3.70;;;1.60;;
45926;SDS011;31639;47.614;19.684;2022-09-06T15:42:31;1.30;;;1.20;;
45926;SDS011;31639;47.614;19.684;2022-09-06T15:47:31;1.97;;;1.40;;
45926;SDS011;31639;47.614;19.684;2022-09-06T15:52:34;1.20;;;1.10;;
45926;SDS011;31639;47.614;19.684;2022-09-06T15:57:34;4.32;;;1.95;;
45926;SDS011;31639;47.614;19.684;2022-09-06T16:02:35;2.70;;;1.87;;
45926;SDS011;31639;47.614;19.684;2022-09-06T16:07:35;2.40;;;1.97;;
45926;SDS011;31639;47.614;19.684;2022-09-06T16:12:40;1.52;;;1.23;;
45926;SDS011;31639;47.614;19.684;2022-09-06T16:17:40;1.90;;;1.25;;
45926;SDS011;31639;47.614;19.684;2022-09-06T16:22:41;2.40;;;1.60;;
45926;SDS011;31639;47.614;19.684;2022-09-06T16:27:41;1.85;;;1.42;;
45926;SDS011;31639;47.614;19.684;2022-09-06T16:32:42;1.90;;;1.50;;
45926;SDS011;31639;47.614;19.684;2022-09-06T16:37:42;1.30;;;1.00;;
45926;SDS011;31639;47.614;19.684;2022-09-06T16:42:42;3.13;;;1.95;;
45926;SDS011;31639;47.614;19.684;2022-09-06T16:47:43;5.80;;;2.38;;
45926;SDS011;31639;47.614;19.684;2022-09-06T16:52:45;6.15;;;2.08;;
45926;SDS011;31639;47.614;19.684;2022-09-06T16:57:45;3.90;;;1.73;;
45926;SDS011;31639;47.614;19.684;2022-09-06T17:02:46;1.85;;;1.45;;
45926;SDS011;31639;47.614;19.684;2022-09-06T17:07:46;2.50;;;1.70;;
45926;SDS011;31639;47.614;19.684;2022-09-06T17:12:47;2.70;;;1.80;;
45926;SDS011;31639;47.614;19.684;2022-09-06T17:17:48;3.92;;;1.90;;
45926;SDS011;31639;47.614;19.684;2022-09-06T17:22:49;2.85;;;1.70;;
45926;SDS011;31639;47.614;19.684;2022-09-06T17:27:50;4.43;;;2.40;;
45926;SDS011;31639;47.614;19.684;2022-09-06T17:32:51;3.58;;;2.42;;
45926;SDS011;31639;47.614;19.684;2022-09-06T17:37:54;2.65;;;2.03;;
45926;SDS011;31639;47.614;19.684;2022-09-06T17:42:54;5.30;;;3.28;;
45926;SDS011;31639;47.614;19.684;2022-09-06T17:47:55;2.97;;;2.13;;
45926;SDS011;31639;47.614;19.684;2022-09-06T17:52:55;3.27;;;2.43;;
45926;SDS011;31639;47.614;19.684;2022-09-06T17:57:56;2.53;;;1.92;;
45926;SDS011;31639;47.614;19.684;2022-09-06T18:02:57;3.85;;;2.63;;
45926;SDS011;31639;47.614;19.684;2022-09-06T18:07:58;2.85;;;2.20;;
45926;SDS011;31639;47.614;19.684;2022-09-06T18:12:58;2.22;;;1.52;;
45926;SDS011;31639;47.614;19.684;2022-09-06T18:17:59;3.15;;;1.90;;
45926;SDS011;31639;47.614;19.684;2022-09-06T18:22:59;2.72;;;2.03;;
45926;SDS011;31639;47.614;19.684;2022-09-06T18:28:00;2.10;;;1.80;;
45926;SDS011;31639;47.614;19.684;2022-09-06T18:33:00;4.03;;;2.40;;
45926;SDS011;31639;47.614;19.684;2022-09-06T18:38:01;3.17;;;2.15;;
45926;SDS011;31639;47.614;19.684;2022-09-06T18:43:01;3.25;;;1.88;;
45926;SDS011;31639;47.614;19.684;2022-09-06T18:48:02;3.50;;;2.80;;
45926;SDS011;31639;47.614;19.684;2022-09-06T18:53:04;2.50;;;2.13;;
45926;SDS011;31639;47.614;19.684;2022-09-06T18:58:05;2.47;;;1.88;;
45926;SDS011;31639;47.614;19.684;2022-09-06T19:03:06;2.35;;;1.90;;
45926;SDS011;31639;47.614;19.684;2022-09-06T19:08:06;5.50;;;2.85;;
45926;SDS011;31639;47.614;19.684;2022-09-06T19:13:07;3.10;;;2.33;;
45926;SDS011;31639;47.614;19.684;2022-09-06T19:18:07;4.00;;;2.42;;
45926;SDS011;31639;47.614;19.684;2022-09-06T19:23:08;3.28;;;2.70;;
45926;SDS011;31639;47.614;19.684;2022-09-06T19:28:08;3.53;;;2.40;;
45926;SDS011;31639;47.614;19.684;2022-09-06T19:33:09;5.43;;;3.30;;
45926;SDS011;31639;47.614;19.684;2022-09-06T19:38:09;5.72;;;2.90;;
45926;SDS011;31639;47.614;19.684;2022-09-06T19:43:09;3.90;;;2.57;;
45926;SDS011;31639;47.614;19.684;2022-09-06T19:48:10;3.72;;;2.60;;
45926;SDS011;31639;47.614;19.684;2022-09-06T19:53:10;3.57;;;2.60;;
45926;SDS011;31639;47.614;19.684;2022-09-06T19:58:11;3.43;;;2.83;;
45926;SDS011;31639;47.614;19.684;2022-09-06T20:03:12;3.53;;;2.67;;
45926;SDS011;31639;47.614;19.684;2022-09-06T20:08:13;3.95;;;2.67;;
45926;SDS011;31639;47.614;19.684;2022-09-06T20:13:13;4.18;;;2.30;;
45926;SDS011;31639;47.614;19.684;2022-09-06T20:18:15;2.80;;;2.50;;
45926;SDS011;31639;47.614;19.684;2022-09-06T20:23:16;5.03;;;2.90;;
45926;SDS011;31639;47.614;19.684;2022-09-06T20:28:17;3.28;;;2.75;;
45926;SDS011;31639;47.614;19.684;2022-09-06T20:33:17;3.77;;;2.60;;
45926;SDS011;31639;47.614;19.684;2022-09-06T20:38:18;4.75;;;3.05;;
45926;SDS011;31639;47.614;19.684;2022-09-06T20:43:18;5.93;;;3.33;;
45926;SDS011;31639;47.614;19.684;2022-09-06T20:48:18;5.63;;;3.17;;
45926;SDS011;31639;47.614;19.684;2022-09-06T20:53:20;3.67;;;2.88;;
45926;SDS011;31639;47.614;19.684;2022-09-06T20:58:20;3.55;;;2.60;;
45926;SDS011;31639;47.614;19.684;2022-09-06T21:03:21;4.73;;;3.27;;
45926;SDS011;31639;47.614;19.684;2022-09-06T21:08:22;4.38;;;3.55;;
45926;SDS011;31639;47.614;19.684;2022-09-06T21:13:22;4.07;;;2.65;;
45926;SDS011;31639;47.614;19.684;2022-09-06T21:18:25;5.18;;;2.97;;
45926;SDS011;31639;47.614;19.684;2022-09-06T21:23:27;5.75;;;3.67;;
45926;SDS011;31639;47.614;19.684;2022-09-06T21:28:29;5.00;;;2.83;;
45926;SDS011;31639;47.614;19.684;2022-09-06T21:33:32;4.05;;;3.20;;
45926;SDS011;31639;47.614;19.684;2022-09-06T21:38:34;4.68;;;2.95;;
45926;SDS011;31639;47.614;19.684;2022-09-06T21:43:37;5.70;;;3.78;;
45926;SDS011;31639;47.614;19.684;2022-09-06T21:48:38;5.38;;;3.47;;
45926;SDS011;31639;47.614;19.684;2022-09-06T21:53:44;4.97;;;3.53;;
45926;SDS011;31639;47.614;19.684;2022-09-06T21:58:50;4.18;;;3.35;;
45926;SDS011;31639;47.614;19.684;2022-09-06T22:03:54;4.35;;;3.30;;
45926;SDS011;31639;47.614;19.684;2022-09-06T22:08:55;4.35;;;2.92;;
45926;SDS011;31639;47.614;19.684;2022-09-06T22:13:58;3.53;;;2.83;;
45926;SDS011;31639;47.614;19.684;2022-09-06T22:19:00;4.50;;;3.08;;
45926;SDS011;31639;47.614;19.684;2022-09-06T22:24:04;6.57;;;4.22;;
45926;SDS011;31639;47.614;19.684;2022-09-06T22:29:23;3.28;;;2.95;;
45926;SDS011;31639;47.614;19.684;2022-09-06T22:34:24;3.17;;;2.28;;
45926;SDS011;31639;47.614;19.684;2022-09-06T22:39:25;4.43;;;3.22;;
45926;SDS011;31639;47.614;19.684;2022-09-06T22:44:26;3.30;;;2.30;;
45926;SDS011;31639;47.614;19.684;2022-09-06T22:49:27;4.30;;;2.90;;
45926;SDS011;31639;47.614;19.684;2022-09-06T22:54:28;6.15;;;3.22;;
45926;SDS011;31639;47.614;19.684;2022-09-06T22:59:28;3.28;;;2.83;;
45926;SDS011;31639;47.614;19.684;2022-09-06T23:04:29;3.87;;;2.30;;
45926;SDS011;31639;47.614;19.684;2022-09-06T23:09:29;5.15;;;3.72;;
45926;SDS011;31639;47.614;19.684;2022-09-06T23:14:30;4.13;;;2.72;;
45926;SDS011;31639;47.614;19.684;2022-09-06T23:19:30;3.70;;;2.45;;
45926;SDS011;31639;47.614;19.684;2022-09-06T23:24:30;5.47;;;3.73;;
45926;SDS011;31639;47.614;19.684;2022-09-06T23:29:31;7.25;;;3.63;;
45926;SDS011;31639;47.614;19.684;2022-09-06T23:34:32;6.70;;;2.65;;
45926;SDS011;31639;47.614;19.684;2022-09-06T23:39:32;3.85;;;3.33;;
45926;SDS011;31639;47.614;19.684;2022-09-06T23:44:33;5.03;;;3.22;;
45926;SDS011;31639;47.614;19.684;2022-09-06T23:49:33;5.75;;;4.05;;
45926;SDS011;31639;47.614;19.684;2022-09-06T23:54:34;4.13;;;2.60;;
45926;SDS011;31639;47.614;19.684;2022-09-06T23:59:36;3.97;;;3.00;;
